Time;durP1;ratioP1;P1;durP2;ratioP2;P2;SDS_P1;SDS_P2;PMS_P1;PMS_P2;Temp;Humidity;BMP_temperature;BMP_pressure;BME280_temperature;BME280_humidity;BME280_pressure;Samples;Min_cycle;Max_cycle;Signal;HPM_P1;HPM_P2
2022/12/14 00:00:39;;;;;;;39.53;19.63;;;-3.10;99.90;;;;;;5055191;28;20209;-71
2022/12/14 00:03:05;;;;;;;35.05;18.60;;;-3.10;99.90;;;;;;5054764;28;20210;-72
2022/12/14 00:05:30;;;;;;;38.00;19.00;;;-3.10;99.90;;;;;;5053341;28;20246;-70
2022/12/14 00:07:56;;;;;;;36.80;19.40;;;-3.20;99.90;;;;;;5054498;28;20757;-70
2022/12/14 00:10:22;;;;;;;32.60;17.40;;;-3.20;99.90;;;;;;5054858;28;20163;-70
2022/12/14 00:12:48;;;;;;;36.45;19.27;;;-3.20;99.90;;;;;;5054875;28;20254;-70
2022/12/14 00:15:13;;;;;;;38.17;19.90;;;-3.20;99.90;;;;;;5053793;28;20265;-70
2022/12/14 00:17:39;;;;;;;36.23;19.70;;;-3.20;99.90;;;;;;5053536;28;20205;-71
2022/12/14 00:20:05;;;;;;;29.40;16.87;;;-3.30;99.90;;;;;;5054719;28;20213;-69
2022/12/14 00:22:31;;;;;;;39.50;17.15;;;-3.30;99.90;;;;;;5054692;28;20644;-70
2022/12/14 00:24:56;;;;;;;38.90;16.87;;;-3.30;99.90;;;;;;5053385;28;20281;-70
2022/12/14 00:27:22;;;;;;;39.23;20.73;;;-3.30;99.90;;;;;;5054564;28;20166;-70
2022/12/14 00:29:48;;;;;;;35.37;18.90;;;-3.30;99.90;;;;;;5054508;28;20163;-70
2022/12/14 00:32:13;;;;;;;35.43;17.80;;;-3.30;99.90;;;;;;5054553;28;20186;-70
2022/12/14 00:34:39;;;;;;;38.27;18.10;;;-3.30;99.90;;;;;;5053424;28;20305;-71
2022/12/14 00:37:05;;;;;;;39.37;18.37;;;-3.20;99.90;;;;;;5053055;28;20190;-70
2022/12/14 00:39:30;;;;;;;33.50;18.87;;;-3.20;99.90;;;;;;5054284;28;20576;-70
2022/12/14 00:41:56;;;;;;;33.33;17.13;;;-3.30;99.90;;;;;;5054352;28;20163;-70
2022/12/14 00:44:22;;;;;;;33.83;17.90;;;-3.30;99.90;;;;;;5053310;28;20194;-70
2022/12/14 00:46:47;;;;;;;33.77;19.87;;;-3.30;99.90;;;;;;5054135;28;20212;-70
2022/12/14 00:49:13;;;;;;;33.90;17.23;;;-3.30;99.90;;;;;;5053963;28;20170;-70
2022/12/14 00:51:39;;;;;;;38.07;19.90;;;-3.30;99.90;;;;;;5052761;28;20178;-70
2022/12/14 00:54:05;;;;;;;38.13;19.90;;;-3.40;99.90;;;;;;5053616;28;20468;-70
2022/12/14 00:56:30;;;;;;;39.20;17.07;;;-3.40;99.90;;;;;;5053323;28;20697;-70
2022/12/14 00:58:56;;;;;;;28.97;18.00;;;-3.40;99.90;;;;;;5054097;28;20508;-70
2022/12/14 01:01:22;;;;;;;31.30;17.57;;;-3.40;99.90;;;;;;5053798;28;20194;-70
2022/12/14 01:03:48;;;;;;;31.20;17.63;;;-3.40;99.90;;;;;;5053780;28;20228;-70
2022/12/14 01:06:16;;;;;;;36.90;19.50;;;-3.40;99.90;;;;;;5052734;28;20661;-70
2022/12/14 01:08:41;;;;;;;28.38;15.60;;;-3.40;99.90;;;;;;5053976;28;20747;-70
2022/12/14 01:11:08;;;;;;;35.60;17.57;;;-3.30;99.90;;;;;;5053839;28;20163;-70
2022/12/14 01:13:35;;;;;;;36.42;17.75;;;-3.40;99.90;;;;;;5052300;28;20764;-70
2022/12/14 01:16:07;;;;;;;30.63;17.15;;;-3.40;99.90;;;;;;5052888;28;20194;-71
2022/12/14 01:18:37;;;;;;;36.28;17.80;;;-3.40;99.90;;;;;;5053542;28;20171;-70
2022/12/14 01:21:16;;;;;;;32.22;18.92;;;-3.40;99.90;;;;;;5053651;28;20658;-70
2022/12/14 01:23:44;;;;;;;34.95;17.05;;;-3.40;99.90;;;;;;5053491;28;20163;-70
2022/12/14 01:26:11;;;;;;;27.80;16.75;;;-3.40;99.90;;;;;;5053000;28;20175;-71
2022/12/14 01:28:37;;;;;;;38.15;19.65;;;-3.40;99.90;;;;;;5053505;28;20173;-70
2022/12/14 01:31:07;;;;;;;34.00;16.47;;;-3.50;99.90;;;;;;5053557;28;20166;-70
2022/12/14 01:33:33;;;;;;;33.95;15.90;;;-3.60;97.90;;;;;;5053203;28;20181;-70
2022/12/14 01:36:10;;;;;;;25.77;15.90;;;-3.50;99.90;;;;;;5052825;28;20175;-70
2022/12/14 01:38:36;;;;;;;34.90;18.98;;;-3.50;99.90;;;;;;5052123;28;20171;-70
2022/12/14 01:41:02;;;;;;;30.87;15.53;;;-3.50;98.80;;;;;;5053383;28;20170;-70
2022/12/14 01:43:57;;;;;;;34.30;17.02;;;-3.60;99.90;;;;;;5053177;28;20397;-70
2022/12/14 01:46:31;;;;;;;35.67;17.85;;;-3.60;99.90;;;;;;5052619;28;20317;-70
2022/12/14 01:49:19;;;;;;;34.15;18.27;;;-3.60;99.90;;;;;;5053231;28;20238;-70
2022/12/14 01:51:53;;;;;;;25.02;15.85;;;-3.60;99.90;;;;;;5052590;28;20187;-71
2022/12/14 01:54:19;;;;;;;28.00;14.85;;;-3.60;99.90;;;;;;5052627;28;20179;-71
2022/12/14 01:56:46;;;;;;;33.72;17.23;;;-3.60;99.90;;;;;;5053152;28;20167;-70
2022/12/14 01:59:20;;;;;;;33.17;15.93;;;-3.70;99.90;;;;;;5053335;28;20173;-70
2022/12/14 02:01:46;;;;;;;25.88;15.60;;;-3.70;97.20;;;;;;5052222;28;20171;-70
2022/12/14 02:04:14;;;;;;;25.42;15.52;;;-3.60;93.70;;;;;;5052735;28;20202;-70
2022/12/14 02:06:42;;;;;;;30.67;18.13;;;-3.60;96.10;;;;;;5051606;28;20194;-70
2022/12/14 02:09:13;;;;;;;26.40;16.27;;;-3.60;95.40;;;;;;5053122;28;20163;-70
2022/12/14 02:11:47;;;;;;;25.23;14.00;;;-3.70;97.60;;;;;;5053119;28;20229;-70
2022/12/14 02:14:13;;;;;;;29.58;18.20;;;-3.60;97.50;;;;;;5052841;28;20190;-70
2022/12/14 02:16:40;;;;;;;33.47;16.57;;;-3.60;96.60;;;;;;5052615;28;20501;-70
2022/12/14 02:19:05;;;;;;;36.72;16.13;;;-3.70;95.70;;;;;;5053007;28;20175;-70
2022/12/14 02:22:11;;;;;;;23.70;15.37;;;-3.70;94.90;;;;;;5053050;28;20505;-70
2022/12/14 02:25:01;;;;;;;30.60;16.25;;;-3.80;85.80;;;;;;5052281;28;20265;-70
2022/12/14 02:27:53;;;;;;;28.92;17.20;;;-3.70;92.30;;;;;;5051608;28;20679;-70
2022/12/14 02:30:25;;;;;;;21.35;11.13;;;-3.80;91.90;;;;;;5054987;28;20643;-71
2022/12/14 02:33:01;;;;;;;34.30;18.55;;;-3.80;91.10;;;;;;5056758;28;20155;-70
2022/12/14 02:35:49;;;;;;;29.02;18.30;;;-3.70;92.70;;;;;;5055728;28;20186;-70
2022/12/14 02:38:15;;;;;;;25.60;15.80;;;-3.80;92.60;;;;;;5056538;28;20693;-70
2022/12/14 02:40:52;;;;;;;32.97;15.00;;;-3.80;92.90;;;;;;5056629;28;20246;-70
2022/12/14 02:43:30;;;;;;;25.98;14.77;;;-3.80;91.40;;;;;;5056479;28;20174;-70
2022/12/14 02:45:58;;;;;;;24.73;12.57;;;-3.80;90.00;;;;;;5055662;28;20191;-70
2022/12/14 02:48:46;;;;;;;38.10;18.20;;;-3.80;84.90;;;;;;5056324;28;20645;-70
2022/12/14 02:51:24;;;;;;;29.48;14.65;;;-3.80;84.90;;;;;;5056431;28;20163;-71
2022/12/14 02:54:00;;;;;;;35.22;16.50;;;-3.80;84.90;;;;;;5054926;28;20186;-71
2022/12/14 02:56:32;;;;;;;32.75;16.67;;;-3.80;84.90;;;;;;5055667;28;20169;-70
2022/12/14 02:59:00;;;;;;;23.45;15.73;;;-3.90;84.80;;;;;;5056313;28;20175;-70
2022/12/14 03:01:28;;;;;;;29.90;13.70;;;-3.90;85.00;;;;;;5055250;28;20178;-70
2022/12/14 03:03:54;;;;;;;37.92;15.48;;;-3.90;84.80;;;;;;5056132;28;20183;-70
2022/12/14 03:06:24;;;;;;;23.20;16.47;;;-3.80;85.60;;;;;;5070635;28;20647;-70
2022/12/14 03:09:06;;;;;;;34.90;14.15;;;-3.80;85.60;;;;;;5054898;28;20417;-70
2022/12/14 03:11:49;;;;;;;23.42;14.75;;;-3.80;84.90;;;;;;5056076;28;20163;-70
2022/12/14 03:14:34;;;;;;;21.33;13.80;;;-3.80;84.90;;;;;;5055847;28;20590;-70
2022/12/14 03:17:09;;;;;;;25.90;13.85;;;-3.70;85.00;;;;;;5054976;28;20174;-70
2022/12/14 03:19:39;;;;;;;32.50;14.45;;;-3.70;84.90;;;;;;5055867;28;20181;-70
2022/12/14 03:22:22;;;;;;;35.00;16.23;;;-3.80;84.90;;;;;;5055916;28;20623;-70
2022/12/14 03:24:56;;;;;;;37.22;16.08;;;-3.80;84.90;;;;;;5055030;28;20198;-71
2022/12/14 03:27:28;;;;;;;28.45;15.60;;;-3.80;84.90;;;;;;5055763;28;20243;-71
2022/12/14 03:30:04;;;;;;;25.95;12.30;;;-3.80;84.90;;;;;;5055726;28;20159;-70
2022/12/14 03:32:32;;;;;;;28.70;15.25;;;-3.80;84.90;;;;;;5055586;28;20596;-71
2022/12/14 03:35:21;;;;;;;23.55;13.38;;;-3.90;73.90;;;;;;5054910;28;20651;-70
2022/12/14 03:37:52;;;;;;;26.08;12.95;;;-4.00;68.00;;;;;;5055044;28;20187;-70
2022/12/14 03:40:21;;;;;;;27.40;15.20;;;-4.00;74.40;;;;;;5055197;28;20167;-71
2022/12/14 03:42:59;;;;;;;31.02;15.52;;;-3.90;76.60;;;;;;5055099;28;20539;-70
2022/12/14 03:45:33;;;;;;;34.65;15.88;;;-3.90;82.50;;;;;;5054570;28;20190;-70
2022/12/14 03:48:20;;;;;;;28.05;14.80;;;-4.00;77.30;;;;;;5055368;28;20158;-70
2022/12/14 03:50:55;;;;;;;24.48;12.07;;;-4.00;70.50;;;;;;5055202;28;20587;-69
2022/12/14 03:53:30;;;;;;;19.65;13.80;;;-4.00;68.30;;;;;;5055506;28;20166;-70
2022/12/14 03:56:11;;;;;;;27.58;13.82;;;-4.10;65.40;;;;;;5053490;28;20186;-70
2022/12/14 03:58:57;;;;;;;22.88;13.80;;;-4.10;68.40;;;;;;5055005;28;20519;-71
2022/12/14 04:01:45;;;;;;;19.00;12.30;;;-4.10;63.50;;;;;;5053768;28;20578;-70
2022/12/14 04:04:22;;;;;;;23.15;13.82;;;-4.00;63.20;;;;;;5054644;28;20255;-70
2022/12/14 04:07:14;;;;;;;22.08;13.00;;;-4.10;63.60;;;;;;5053932;28;20218;-71
2022/12/14 04:09:49;;;;;;;25.08;13.50;;;-4.10;60.90;;;;;;5054492;28;20194;-70
2022/12/14 04:21:18;;;;;;;21.05;12.32;;;-4.00;60.60;;;;;;5054821;28;20193;-70
2022/12/14 04:26:44;;;;;;;25.45;14.23;;;-4.20;55.80;;;;;;5054451;28;20246;-71
2022/12/14 04:32:07;;;;;;;26.95;13.50;;;-4.10;42.30;;;;;;5054791;28;20190;-70
2022/12/14 04:34:36;;;;;;;18.45;13.38;;;-4.10;44.00;;;;;;5053772;28;20212;-70
2022/12/14 04:37:07;;;;;;;21.10;12.60;;;-4.10;31.30;;;;;;5053050;28;20632;-71
2022/12/14 04:39:40;;;;;;;25.45;13.25;;;-4.20;37.00;;;;;;5054567;28;20170;-70
2022/12/14 04:42:07;;;;;;;23.52;12.70;;;-4.20;30.60;;;;;;5053319;28;20630;-70
2022/12/14 04:44:48;;;;;;;20.05;11.80;;;-4.20;30.60;;;;;;5052334;28;20596;-70
2022/12/14 04:47:16;;;;;;;20.58;11.77;;;-4.20;42.30;;;;;;5052896;28;20208;-71
2022/12/14 04:49:56;;;;;;;24.50;14.25;;;-4.20;36.10;;;;;;5054243;28;20163;-70
2022/12/14 04:52:32;;;;;;;17.38;11.50;;;-4.20;42.70;;;;;;5053608;28;20169;-70
2022/12/14 04:55:21;;;;;;;21.00;12.60;;;-4.30;29.10;;;;;;5053206;28;20182;-70
2022/12/14 04:58:01;;;;;;;21.95;12.32;;;-4.30;42.00;;;;;;5053830;28;20170;-70
2022/12/14 05:00:31;;;;;;;17.67;12.43;;;-4.20;28.00;;;;;;5052906;28;20179;-70
2022/12/14 05:03:21;;;;;;;19.48;12.18;;;-4.30;34.50;;;;;;5052631;28;20195;-70
2022/12/14 05:06:04;;;;;;;19.80;12.15;;;-4.30;36.50;;;;;;5052976;28;20206;-70
2022/12/14 05:08:50;;;;;;;21.02;12.27;;;-4.30;26.70;;;;;;5054013;28;20163;-70
2022/12/14 05:11:35;;;;;;;23.35;12.15;;;-4.40;30.70;;;;;;5053748;28;20171;-70
2022/12/14 05:14:05;;;;;;;29.02;15.13;;;-4.40;22.70;;;;;;5053069;28;20536;-71
2022/12/14 05:16:31;;;;;;;16.55;13.00;;;-4.40;19.80;;;;;;5053258;28;20178;-70
2022/12/14 05:18:57;;;;;;;13.23;11.20;;;-4.40;26.50;;;;;;5052423;28;20171;-69
2022/12/14 05:24:07;;;;;;;20.42;12.32;;;-4.40;28.90;;;;;;5053166;28;20189;-71
2022/12/14 05:26:33;;;;;;;31.50;12.07;;;-4.40;31.50;;;;;;5051969;28;20170;-70
2022/12/14 05:28:58;;;;;;;21.30;13.00;;;-4.40;25.20;;;;;;5053615;28;20170;-70
2022/12/14 05:31:24;;;;;;;18.53;11.77;;;-4.40;27.40;;;;;;5053388;28;20179;-70
2022/12/14 05:33:50;;;;;;;21.07;11.33;;;-4.40;19.40;;;;;;5053449;28;20206;-70
2022/12/14 05:36:16;;;;;;;25.80;12.33;;;-4.50;23.40;;;;;;5051424;28;20406;-70
2022/12/14 05:38:41;;;;;;;20.50;11.67;;;-4.50;24.70;;;;;;5053308;28;20197;-69
2022/12/14 05:41:07;;;;;;;18.00;10.10;;;-4.60;14.20;;;;;;5051939;28;20198;-69
2022/12/14 05:43:33;;;;;;;23.63;14.00;;;-4.60;16.40;;;;;;5052978;28;20530;-70
2022/12/14 05:46:00;;;;;;;21.10;13.20;;;-4.60;13.00;;;;;;5052467;28;20236;-70
2022/12/14 05:48:26;;;;;;;17.15;12.18;;;-4.50;20.10;;;;;;5053139;28;20162;-69
2022/12/14 05:50:52;;;;;;;26.23;10.90;;;-4.60;13.40;;;;;;5051785;28;20689;-70
2022/12/14 05:53:18;;;;;;;16.70;11.17;;;-4.60;11.50;;;;;;5053061;28;20258;-70
2022/12/14 05:55:48;;;;;;;15.17;11.17;;;-4.60;13.40;;;;;;5052237;28;20547;-70
2022/12/14 05:58:13;;;;;;;21.23;12.52;;;-4.70;10.20;;;;;;5053257;28;20410;-72
2022/12/14 06:00:39;;;;;;;18.87;12.47;;;-4.70;15.00;;;;;;5053263;28;20167;-72
2022/12/14 06:03:05;;;;;;;19.40;11.93;;;-4.70;12.30;;;;;;5053312;28;20175;-72
2022/12/14 06:05:31;;;;;;;17.55;11.25;;;-4.70;12.10;;;;;;5055115;28;20289;-71
2022/12/14 06:07:56;;;;;;;17.00;10.47;;;-4.70;17.30;;;;;;5057138;28;20301;-69
2022/12/14 06:10:22;;;;;;;18.00;10.43;;;-4.70;10.90;;;;;;5057255;28;20614;-69
2022/12/14 06:12:48;;;;;;;26.87;12.73;;;-4.70;10.40;;;;;;5057092;28;20562;-70
2022/12/14 06:15:14;;;;;;;16.40;11.47;;;-4.80;10.30;;;;;;5055254;28;20206;-70
2022/12/14 06:17:44;;;;;;;18.90;10.00;;;-4.80;11.60;;;;;;5055710;28;20170;-70
2022/12/14 06:20:11;;;;;;;19.63;10.68;;;-4.80;11.30;;;;;;5057058;28;20208;-70
2022/12/14 06:22:36;;;;;;;46.97;10.30;;;-4.80;7.60;;;;;;5056941;28;20179;-69
2022/12/14 06:25:03;;;;;;;17.73;10.80;;;-4.90;10.60;;;;;;5056301;28;20208;-72
2022/12/14 06:27:28;;;;;;;21.60;12.68;;;-4.90;11.30;;;;;;5057027;28;20174;-71
2022/12/14 06:29:54;;;;;;;18.90;11.70;;;-4.90;9.80;;;;;;5056592;28;20201;-71
2022/12/14 06:32:20;;;;;;;18.90;10.52;;;-4.80;4.90;;;;;;5056855;28;20578;-70
2022/12/14 06:34:46;;;;;;;17.83;10.07;;;-4.70;5.10;;;;;;5056017;28;20197;-70
2022/12/14 06:37:12;;;;;;;21.03;10.00;;;-4.70;4.10;;;;;;5055684;28;20220;-70
2022/12/14 06:39:38;;;;;;;16.90;11.20;;;-4.80;5.40;;;;;;5056691;28;20209;-72
2022/12/14 06:42:04;;;;;;;23.50;9.93;;;-4.70;12.80;;;;;;5056523;28;20191;-70
2022/12/14 06:44:30;;;;;;;16.83;11.57;;;-4.70;8.20;;;;;;5055854;28;20198;-70
2022/12/14 06:46:56;;;;;;;17.90;11.27;;;-4.70;10.30;;;;;;5056591;28;20159;-69
2022/12/14 06:49:22;;;;;;;18.35;10.93;;;-4.70;5.10;;;;;;5056451;28;20163;-70
2022/12/14 06:51:49;;;;;;;21.17;11.82;;;-4.60;1.70;;;;;;5056338;28;20604;-70
2022/12/14 06:54:16;;;;;;;18.40;9.90;;;-4.60;1.00;;;;;;5055911;28;20399;-70
2022/12/14 06:56:44;;;;;;;12.57;11.32;;;-4.70;1.00;;;;;;5056077;28;20169;-70
2022/12/14 06:59:10;;;;;;;18.25;11.02;;;-4.70;1.00;;;;;;5056281;28;20245;-70
2022/12/14 07:01:37;;;;;;;14.70;10.88;;;-4.60;1.00;;;;;;5056200;28;20569;-70
2022/12/14 07:04:02;;;;;;;19.10;9.90;;;-4.60;1.00;;;;;;5055798;28;20233;-69
2022/12/14 07:06:36;;;;;;;17.33;11.10;;;-4.60;2.60;;;;;;5054115;28;20187;-70
2022/12/14 07:09:03;;;;;;;14.05;11.45;;;-4.60;1.00;;;;;;5071734;28;20171;-70
2022/12/14 07:11:30;;;;;;;14.20;10.65;;;-4.60;1.00;;;;;;5056211;28;20174;-70
2022/12/14 07:13:59;;;;;;;13.95;8.45;;;-4.70;1.00;;;;;;5055992;28;20187;-70
2022/12/14 07:16:26;;;;;;;10.70;7.95;;;-4.60;1.00;;;;;;5054678;28;20678;-69
2022/12/14 07:18:53;;;;;;;16.58;10.52;;;-4.60;1.00;;;;;;5056080;28;20250;-70
2022/12/14 07:21:20;;;;;;;14.27;10.07;;;-4.60;1.00;;;;;;5055093;28;20163;-69
2022/12/14 07:23:47;;;;;;;15.70;10.77;;;-4.60;1.00;;;;;;5055971;28;20179;-69
2022/12/14 07:26:22;;;;;;;16.40;10.52;;;-4.60;1.00;;;;;;5053814;28;20202;-70
2022/12/14 07:28:48;;;;;;;16.40;10.50;;;-4.70;1.00;;;;;;5055852;28;20194;-69
2022/12/14 07:31:16;;;;;;;12.45;9.52;;;-4.60;1.00;;;;;;5055737;28;20569;-71
2022/12/14 07:33:42;;;;;;;22.40;10.85;;;-4.60;1.00;;;;;;5055714;28;20201;-70
2022/12/14 07:36:11;;;;;;;15.60;9.30;;;-4.60;1.00;;;;;;5053651;28;20633;-71
2022/12/14 07:38:38;;;;;;;18.35;11.15;;;-4.60;1.00;;;;;;5054492;28;20566;-69
2022/12/14 07:41:06;;;;;;;24.88;11.05;;;-4.60;1.00;;;;;;5055620;28;20220;-68
2022/12/14 07:43:32;;;;;;;25.70;12.75;;;-4.60;1.00;;;;;;5055448;28;20182;-69
2022/12/14 07:46:03;;;;;;;18.00;12.48;;;-4.60;1.00;;;;;;5054669;28;20230;-70
2022/12/14 07:48:30;;;;;;;18.45;10.05;;;-4.60;1.00;;;;;;5055302;28;20159;-69
2022/12/14 07:51:01;;;;;;;27.15;10.88;;;-4.60;1.00;;;;;;5055320;28;20261;-70
2022/12/14 07:53:27;;;;;;;26.27;13.70;;;-4.60;1.00;;;;;;5055381;28;20159;-69
2022/12/14 07:55:53;;;;;;;25.13;12.27;;;-4.60;1.00;;;;;;5054571;28;20575;-70
2022/12/14 07:58:19;;;;;;;28.93;12.70;;;-4.60;1.00;;;;;;5055083;28;20642;-69
2022/12/14 08:00:44;;;;;;;24.33;12.97;;;-4.60;1.00;;;;;;5054014;28;20171;-70
2022/12/14 08:03:10;;;;;;;15.37;11.27;;;-4.70;1.00;;;;;;5055141;28;20171;-70
2022/12/14 08:05:39;;;;;;;24.23;12.63;;;-4.70;1.00;;;;;;5054180;28;20698;-70
2022/12/14 08:08:05;;;;;;;19.50;11.25;;;-4.70;1.00;;;;;;5055044;28;20167;-70
2022/12/14 08:10:31;;;;;;;14.23;10.80;;;-4.70;1.00;;;;;;5054948;28;20567;-70
2022/12/14 08:12:58;;;;;;;17.45;11.15;;;-4.60;1.00;;;;;;5054700;28;20256;-70
2022/12/14 08:15:23;;;;;;;18.63;10.10;;;-4.60;1.00;;;;;;5054195;28;20199;-70
2022/12/14 08:17:49;;;;;;;14.07;9.70;;;-4.60;1.00;;;;;;5053853;28;20183;-69
2022/12/14 08:20:15;;;;;;;14.67;8.40;;;-4.50;1.00;;;;;;5054837;28;20505;-69
2022/12/14 08:22:40;;;;;;;18.60;10.93;;;-4.50;1.00;;;;;;5053482;28;20167;-69
2022/12/14 08:25:07;;;;;;;16.10;9.23;;;-4.40;1.00;;;;;;5053734;28;20225;-70
2022/12/14 08:27:32;;;;;;;19.70;9.98;;;-4.50;1.00;;;;;;5052450;28;20171;-69
2022/12/14 08:29:58;;;;;;;20.37;10.60;;;-4.50;1.00;;;;;;5054624;28;20237;-69
2022/12/14 08:32:24;;;;;;;13.50;10.10;;;-4.50;1.00;;;;;;5054607;28;20155;-69
2022/12/14 08:34:49;;;;;;;21.07;11.10;;;-4.50;1.00;;;;;;5053685;28;20429;-70
2022/12/14 08:37:15;;;;;;;13.43;10.17;;;-4.50;1.00;;;;;;5054333;28;20251;-70
2022/12/14 08:39:41;;;;;;;17.83;10.63;;;-4.40;1.00;;;;;;5054538;28;20174;-70
2022/12/14 08:42:06;;;;;;;12.47;8.50;;;-4.40;1.00;;;;;;5054284;28;20171;-69
2022/12/14 08:44:32;;;;;;;19.87;11.23;;;-4.40;1.00;;;;;;5053497;28;20740;-70
2022/12/14 08:46:59;;;;;;;13.43;10.23;;;-4.30;1.00;;;;;;5053924;28;20167;-70
2022/12/14 08:49:24;;;;;;;14.02;9.20;;;-4.20;1.00;;;;;;5054113;28;20198;-69
2022/12/14 08:51:50;;;;;;;17.40;8.80;;;-4.10;1.00;;;;;;5054262;28;20190;-69
2022/12/14 08:54:18;;;;;;;19.50;10.20;;;-4.00;1.00;;;;;;5053859;28;20546;-70
2022/12/14 08:56:43;;;;;;;11.98;8.85;;;-4.00;1.00;;;;;;5052754;28;20169;-69
2022/12/14 08:59:09;;;;;;;19.57;8.60;;;-4.10;1.00;;;;;;5053845;28;20163;-70
2022/12/14 09:01:35;;;;;;;17.53;12.60;;;-4.10;1.00;;;;;;5054022;28;20398;-70
2022/12/14 09:04:03;;;;;;;17.40;10.37;;;-4.00;1.00;;;;;;5053733;28;20206;-71
2022/12/14 09:06:29;;;;;;;16.92;10.95;;;-4.00;1.00;;;;;;5053277;28;20178;-69
2022/12/14 09:08:56;;;;;;;14.93;9.57;;;-3.90;1.00;;;;;;5053775;28;20249;-69
2022/12/14 09:11:22;;;;;;;13.68;9.98;;;-3.90;1.00;;;;;;5053686;28;20166;-69
2022/12/14 09:13:51;;;;;;;15.63;10.13;;;-3.80;1.00;;;;;;5053668;28;20197;-70
2022/12/14 09:16:18;;;;;;;13.10;9.35;;;-3.80;1.00;;;;;;5053160;28;20262;-69
2022/12/14 09:18:47;;;;;;;16.67;8.95;;;-3.70;1.00;;;;;;5053923;28;20167;-69
2022/12/14 09:21:14;;;;;;;15.90;11.00;;;-3.60;1.00;;;;;;5053621;28;20175;-70
2022/12/14 09:23:41;;;;;;;14.25;10.70;;;-3.50;1.00;;;;;;5053665;28;20170;-70
2022/12/14 09:26:18;;;;;;;20.52;10.23;;;-3.40;1.00;;;;;;5052845;28;20286;-69
2022/12/14 09:28:59;;;;;;;13.50;8.20;;;-3.40;1.00;;;;;;5053695;28;20186;-69
2022/12/14 09:31:27;;;;;;;10.27;7.95;;;-3.30;1.00;;;;;;5053415;28;20301;-69
2022/12/14 09:33:53;;;;;;;12.68;9.82;;;-3.30;1.00;;;;;;5052259;28;20555;-69
2022/12/14 09:36:25;;;;;;;14.32;9.27;;;-3.20;1.00;;;;;;5052712;28;20262;-70
2022/12/14 09:38:54;;;;;;;13.25;9.27;;;-3.20;1.00;;;;;;5053316;28;20166;-69
2022/12/14 09:41:48;;;;;;;27.95;8.32;;;-3.20;1.00;;;;;;5053365;28;20691;-70
2022/12/14 09:44:36;;;;;;;11.60;7.05;;;-3.10;1.00;;;;;;5053089;28;20201;-69
2022/12/14 09:47:14;;;;;;;14.13;8.10;;;-3.00;1.00;;;;;;5052339;28;20167;-70
2022/12/14 09:50:11;;;;;;;9.40;8.38;;;-3.00;1.00;;;;;;5053282;28;20163;-69
2022/12/14 09:53:02;;;;;;;9.93;6.97;;;-2.90;1.00;;;;;;5052830;28;20183;-70
2022/12/14 09:55:42;;;;;;;11.55;8.68;;;-2.80;1.00;;;;;;5052334;28;20183;-70
2022/12/14 09:58:25;;;;;;;11.18;7.80;;;-2.80;1.00;;;;;;5053468;28;20220;-69
2022/12/14 10:01:14;;;;;;;9.75;8.10;;;-2.70;1.00;;;;;;5053168;28;20178;-69
2022/12/14 10:04:10;;;;;;;10.00;7.88;;;-2.60;1.00;;;;;;5044067;28;20182;-70
2022/12/14 10:06:43;;;;;;;15.30;9.05;;;-2.60;1.00;;;;;;5052562;28;20642;-69
2022/12/14 10:09:36;;;;;;;11.15;7.53;;;-2.50;1.00;;;;;;5053095;28;20159;-69
2022/12/14 10:12:41;;;;;;;9.27;7.82;;;-2.40;1.00;;;;;;5052039;28;20175;-69
2022/12/14 10:15:22;;;;;;;13.52;8.30;;;-2.40;1.00;;;;;;5052292;28;20183;-69
2022/12/14 10:18:00;;;;;;;8.43;7.47;;;-2.40;1.00;;;;;;5052781;28;20254;-69
2022/12/14 10:20:53;;;;;;;11.07;7.60;;;-2.30;1.00;;;;;;5052937;28;20167;-69
2022/12/14 10:23:23;;;;;;;19.42;9.30;;;-2.30;1.00;;;;;;5053102;28;20213;-69
2022/12/14 10:25:54;;;;;;;12.52;8.20;;;-2.20;1.00;;;;;;5051942;28;20653;-70
2022/12/14 10:28:36;;;;;;;12.40;8.50;;;-2.20;1.00;;;;;;5052992;28;20221;-71
2022/12/14 10:31:08;;;;;;;16.90;7.82;;;-2.10;1.00;;;;;;5053131;28;20159;-69
2022/12/14 10:33:37;;;;;;;14.48;8.35;;;-2.10;1.00;;;;;;5052913;28;20163;-70
2022/12/14 10:36:28;;;;;;;15.77;8.70;;;-2.00;1.00;;;;;;5052214;28;20686;-70
2022/12/14 10:39:00;;;;;;;10.07;8.43;;;-2.00;1.00;;;;;;5053065;28;20182;-70
2022/12/14 10:41:39;;;;;;;11.98;8.60;;;-1.90;1.00;;;;;;5051611;28;20175;-69
2022/12/14 10:44:29;;;;;;;10.73;8.25;;;-1.90;1.00;;;;;;5052622;28;20814;-70
2022/12/14 10:47:03;;;;;;;8.95;7.50;;;-1.90;1.00;;;;;;5051559;28;20178;-70
2022/12/14 10:50:03;;;;;;;12.40;9.75;;;-1.80;1.00;;;;;;5052759;28;20166;-69
2022/12/14 10:52:36;;;;;;;13.73;7.55;;;-1.70;1.00;;;;;;5053925;28;20177;-69
2022/12/14 10:55:10;;;;;;;12.90;7.85;;;-1.60;1.00;;;;;;5055739;28;20190;-69
2022/12/14 10:57:36;;;;;;;16.15;8.65;;;-1.60;1.00;;;;;;5056156;28;20224;-69
2022/12/14 11:00:11;;;;;;;10.50;7.30;;;-1.60;1.00;;;;;;5056141;28;20173;-71
2022/12/14 11:02:57;;;;;;;8.30;7.32;;;-1.60;1.00;;;;;;5056482;28;20162;-69
2022/12/14 11:05:37;;;;;;;14.90;8.02;;;-1.50;1.00;;;;;;5055008;28;20258;-70
2022/12/14 11:11:29;;;;;;;14.82;7.72;;;-1.50;1.00;;;;;;5068604;28;20219;-70
2022/12/14 11:14:13;;;;;;;13.25;7.93;;;-1.50;1.00;;;;;;5075795;28;20228;-70
2022/12/14 11:16:40;;;;;;;12.27;9.27;;;-1.40;1.00;;;;;;5069139;28;20166;-69
2022/12/14 11:19:21;;;;;;;13.68;9.05;;;-1.40;1.00;;;;;;5075923;28;20488;-69
2022/12/14 11:21:48;;;;;;;11.70;8.55;;;-1.30;1.00;;;;;;5076083;28;20181;-69
2022/12/14 11:24:28;;;;;;;24.88;9.48;;;-1.30;1.00;;;;;;5075317;28;20248;-70
2022/12/14 11:26:59;;;;;;;11.90;8.40;;;-1.30;1.00;;;;;;5076114;28;20184;-69
2022/12/14 11:29:34;;;;;;;12.95;7.95;;;-1.20;1.00;;;;;;5075635;28;20627;-69
2022/12/14 11:32:00;;;;;;;10.82;7.68;;;-1.20;1.00;;;;;;5075563;28;20212;-70
2022/12/14 11:34:33;;;;;;;12.55;8.32;;;-1.20;1.00;;;;;;5074827;28;20186;-70
2022/12/14 11:37:19;;;;;;;9.75;8.60;;;-1.10;1.00;;;;;;5075613;28;20162;-70
2022/12/14 11:43:27;;;;;;;10.02;7.15;;;-1.00;1.00;;;;;;5075735;28;20194;-70
2022/12/14 11:45:55;;;;;;;10.75;7.72;;;-1.00;1.00;;;;;;5074830;28;20193;-69
2022/12/14 11:48:24;;;;;;;11.07;7.30;;;-0.90;1.00;;;;;;5075260;28;20181;-70
2022/12/14 11:50:53;;;;;;;8.90;8.05;;;-0.90;1.00;;;;;;5075290;28;20250;-69
2022/12/14 11:53:21;;;;;;;9.48;7.65;;;-0.90;1.00;;;;;;5075299;28;20171;-69
2022/12/14 11:55:56;;;;;;;12.52;8.55;;;-0.90;1.00;;;;;;5074322;28;20201;-69
2022/12/14 11:58:47;;;;;;;11.43;8.68;;;-0.80;1.00;;;;;;5074958;28;20166;-70
2022/12/14 12:01:17;;;;;;;9.88;7.28;;;-0.80;1.00;;;;;;5074952;28;20549;-69
2022/12/14 12:03:49;;;;;;;8.48;6.50;;;-0.80;1.00;;;;;;5074552;28;20274;-69
2022/12/14 12:06:48;;;;;;;8.85;7.55;;;-0.70;1.00;;;;;;5074054;28;20601;-70
2022/12/14 12:09:29;;;;;;;12.82;8.48;;;-0.70;1.00;;;;;;5050017;28;20327;-70
2022/12/14 12:12:16;;;;;;;12.70;8.32;;;-0.70;1.00;;;;;;5074910;28;20203;-70
2022/12/14 12:14:57;;;;;;;14.10;9.02;;;-0.70;1.00;;;;;;5055886;28;20685;-70
2022/12/14 12:17:38;;;;;;;16.63;9.30;;;-0.70;1.00;;;;;;5072738;28;20209;-70
2022/12/14 12:20:28;;;;;;;15.80;8.73;;;-0.60;1.00;;;;;;5074588;28;20588;-69
2022/12/14 12:22:59;;;;;;;13.98;7.65;;;-0.60;1.00;;;;;;5074695;28;20170;-70
2022/12/14 12:25:28;;;;;;;14.13;7.95;;;-0.50;1.00;;;;;;5073952;28;20674;-70
2022/12/14 12:28:03;;;;;;;11.25;7.38;;;-0.50;1.00;;;;;;5056742;28;20504;-70
2022/12/14 12:30:39;;;;;;;7.38;6.63;;;-0.50;1.00;;;;;;5074633;28;20162;-70
2022/12/14 12:34:43;;;;;;;11.73;6.88;;;-0.40;1.00;;;;;;5074462;28;20386;-70
2022/12/14 12:36:48;;;;;;;9.85;7.55;;;-0.50;1.00;;;;;;5012192;28;20235;-70
2022/12/14 12:39:18;;;;;;;13.85;7.10;;;-0.50;1.00;;;;;;5031185;28;20583;-70
2022/12/14 12:42:05;;;;;;;12.25;7.97;;;-0.40;1.00;;;;;;5068733;28;20173;-73
2022/12/14 12:45:04;;;;;;;12.27;7.18;;;-0.40;1.00;;;;;;5073451;28;20726;-71
2022/12/14 12:48:10;;;;;;;9.10;7.60;;;-0.40;1.00;;;;;;5056479;28;20174;-70
2022/12/14 12:50:43;;;;;;;11.05;7.53;;;-0.40;1.00;;;;;;5067828;28;20324;-70
2022/12/14 12:53:17;;;;;;;13.15;6.70;;;-0.30;1.00;;;;;;5074035;28;20669;-70
2022/12/14 12:56:05;;;;;;;10.35;7.03;;;-0.30;1.00;;;;;;5073280;28;20189;-70
2022/12/14 12:58:34;;;;;;;14.38;7.93;;;-0.20;1.00;;;;;;5073873;28;20166;-70
2022/12/14 13:01:21;;;;;;;13.68;6.72;;;-0.20;1.00;;;;;;5073694;28;20166;-70
2022/12/14 13:03:50;;;;;;;8.30;7.25;;;-0.20;1.00;;;;;;5073966;28;20333;-70
2022/12/14 13:10:22;;;;;;;7.68;5.75;;;-0.20;1.00;;;;;;4992594;28;20177;-70
2022/12/14 13:13:07;;;;;;;;;;;;;;;;;;;;;
2022/12/14 13:15:41;;;;;;;8.65;5.90;;;-0.30;1.00;;;;;;5054965;28;20212;-70
2022/12/14 13:18:31;;;;;;;7.53;5.82;;;-0.20;1.00;;;;;;5073893;28;20242;-70
2022/12/14 13:21:06;;;;;;;6.47;5.88;;;-0.30;1.00;;;;;;5073527;28;20175;-70
2022/12/14 13:23:32;;;;;;;8.02;6.45;;;-0.30;1.00;;;;;;5055756;28;20209;-70
2022/12/14 13:26:20;;;;;;;7.32;6.55;;;-0.30;1.00;;;;;;5072862;28;20217;-70
2022/12/14 13:29:04;;;;;;;10.20;6.03;;;-0.30;1.00;;;;;;5070490;28;20189;-70
2022/12/14 13:31:43;;;;;;;7.53;6.68;;;-0.30;1.00;;;;;;5056084;28;20194;-70
2022/12/14 13:34:21;;;;;;;19.48;6.63;;;-0.30;1.00;;;;;;5073094;28;20228;-70